Stewardson, Illinois
Current Conditions -  °F | °C
As of 4:15 PM on Friday 31 Oct 2014 (Local Time) from K1H2 Reporting Station
Overcast Overcast  
Wind Chill: 34°   Ceiling: 5000
Heat Index: 43°   Visibility: 10mi
Dew Point: 22°   Wind: 23mph
Humidity: 43%   Direction: 330°NNW
Pressure: 30.21"   Gusts: 32mph
Location:  39.26°N, 88.63°W
Report Text: K1H2 312115Z AUTO 33020G28KT 10SM OVC050 06/M06 A3021 RMK AO2 T00611056
Loading
Personal Weather Stations






























Interactive Weather Map
Tropical Storm Tracking
New forecast layout! Learn more

10-Day Weather Forecast

Advertisements
Track Severe Weather on mobile